ACT        NSW        VIC        QLD        SA        WA        TAS        NT        INFO        CALC            by VK5ZD

Past Date/Time: (dd/mm/yyyy hh:mm or blank for current data)    

  Atmospheric Gas Attenuation - ITU Rec 676-11   --------------- dB/100km ---------------
QLD Stations Date Time Temp RH % AH g/m3 Dew Point Wind Direction Speed kph Gust kph Barometer mB Rainfall Since 9am 24GHz 47GHz 76GHz 122GHz 134GHz 241GHz
Alva Beach 08/05 11:20 26.9 57 14.59 17.9 17 20 1017 0 31.5 31.6 56.3 148.7 157.0 544.9
Amberley 08/05 11:20 20.1 23 4 -1.7 13 15 1019.6 0 9.7 18.0 21.5 55.5 39.9 133.6
Applethorpe 08/05 11:20 15.4 30 3.94 -2.1 13 15 1019.8 0 9.7 18.9 22.5 58.2 41.6 139.1
Archerfield 08/05 11:20 19.2 30 4.95 1.2 11 17 1020.1 0 11.7 19.5 24.7 64.2 50.3 170.3
Ayr 08/05 11:20 27 51 13.13 16 19 24 1013.1 0 28.4 29.0 50.2 132.5 137.3 476.1
Ballera 08/05 11:20 16.4 30 4.19 -1.2 24 28 1027.5 0 10.2 19.3 23.3 60.2 44.1 147.8
Barcaldine 08/05 09:00 14 52 6.27 4.4 15 1013.1 0 14.6 22.2 30.8 80.4 68.8 234.6
Beaudesert Aws 08/05 11:20 19.8 20 3.42 -3.8 0 0 1019.8 0 8.5 17.4 19.8 50.9 34.2 113.4
Bedourie 08/05 09:00 13.4 47 5.46 2.4 17 1026 0 12.9 21.6 28.5 74.2 60.3 204.7
Beerburrum 08/05 11:20 19.7 40 6.79 5.7 6 7 1013.1 0 15.5 21.6 30.5 79.7 69.9 239.4
Biloela 08/05 11:20 19.5 17 2.85 -6.2 13 20 1020.9 0 7.3 16.8 18.2 46.6 28.7 94.0
Birdsville 08/05 11:20 16.7 28 3.98 -1.9 35 39 1027.8 0 9.7 18.9 22.6 58.2 41.6 139.4
Blackall 08/05 11:20 15.5 25 3.3 -4.4 30 33 1023.2 0 8.3 18.1 20.6 52.9 34.8 115.3
Blackwater Airport 08/05 11:20 19.6 19 3.21 -4.6 24 30 1021.7 0 8.0 17.2 19.3 49.5 32.2 106.5
Bowen Airport Aws 08/05 11:20 27.1 44 11.39 14.1 32 37 1017.2 0 24.8 26.5 43.8 115.2 115.9 401.2
Brisbane 08/05 11:20 19.4 24 4 -1.7 6 6 1020.1 0 9.7 18.2 21.7 56.0 40.2 134.8
Brisbane Airport 08/05 11:20 19.2 23 3.79 -2.4 13 15 1020 0 9.3 18.0 21.1 54.4 38.2 127.5
Bundaberg 08/05 11:20 20.2 35 6.12 4.3 19 24 1019.6 0 14.1 20.8 28.3 73.6 62.4 212.8
Burketown Airport 08/05 11:20 29 33 9.48 11.1 28 32 1015.2 0 20.7 23.2 36.0 94.5 91.1 314.6
Cairns 08/05 11:20 28.3 68 18.8 21.8 35 43 1015 0 40.2 38.2 73.1 193.4 212.4 738.2
Cairns Racecourse 08/05 11:20 28.3 70 19.35 22.3 15 20 1015.2 0 41.3 39.2 75.6 200.1 220.6 766.6
Camooweal 08/05 11:20 22.8 32 6.5 5.3 30 35 1019.2 0 14.8 20.7 28.6 74.7 64.5 220.6
Canungra (Defence) 08/05 11:20 19.4 36 6.01 3.9 6 7 1013.1 0 13.9 20.6 27.9 72.8 61.4 209.4
Cape Flattery 08/05 11:20 28.3 81 22.4 24.7 30 37 1013.7 0.4 47.8 44.9 90.0 238.2 267.4 929.3
Cape Moreton 08/05 11:20 18.8 42 6.76 5.6 11 15 1019.8 0 15.5 22.0 31.0 80.9 70.8 242.2
Carters Bore 08/05 11:20 21.3 37 6.9 6 19 24 1013.1 0 15.7 21.4 30.3 79.1 69.8 239.1
Century Mine 08/05 11:20 26.6 35 8.81 9.9 24 30 1016.9 0 19.4 22.9 34.8 91.3 86.3 297.8
Charleville 08/05 11:20 16 28 3.81 -2.5 30 35 1025.1 0 9.4 18.8 22.1 57.0 40.1 133.8
Charters Towers Airport 08/05 11:20 25.7 42 10.06 12.1 6 6 1017.7 0 22.1 24.9 39.7 104.2 101.9 352.1
Charters Towers Airport Comparison 08/05 09:00 23 67 13.77 16.5 1013.1 0 30.0 31.5 55.5 146.5 153.3 531.4
Clermont Airport 08/05 11:20 19.6 25 4.22 -1 13 22 1021.2 0 10.1 18.5 22.3 57.7 42.4 142.6
Cloncurry 08/05 11:20 23 31 6.37 5 35 41 1019.4 0 14.5 20.5 28.1 73.4 62.9 215.1
Coen Airport 08/05 11:20 29 59 16.95 20.4 19 22 1012.4 0 36.2 34.6 64.3 169.9 183.9 639.0
Collinsville 08/05 09:00 20.4 44 7.78 7.7 6 1013.1 0 17.6 22.9 33.7 88.2 80.7 277.3
Cooktown 08/05 11:20 26.3 76 18.81 21.7 26 35 1014.1 0 40.4 39.1 75.0 198.5 218.2 757.9
Coolangatta 08/05 11:20 18.9 28 4.54 0 9 11 1019.6 0 10.8 19.0 23.5 60.8 46.1 155.4
Cowley Beach (Defence) 08/05 11:20 25.4 82 19.3 22.1 11 13 1013.1 0 41.6 40.4 78.2 206.9 228.2 792.6
Dalby 08/05 11:20 15.2 32 4.15 -1.4 20 22 1021.6 0 10.1 19.3 23.3 60.3 44.0 147.7
Double Island Point 08/05 11:20 18.6 50 7.96 8 33 39 1018.9 0 18.0 23.8 35.3 92.5 85.1 292.5
Emerald 08/05 11:20 18.2 21 3.26 -4.5 35 41 1022 0 8.2 17.5 19.8 50.8 33.3 110.1
Gatton 08/05 11:20 19 26 4.24 -1 19 22 1013.1 0 10.2 18.4 22.3 57.8 42.6 143.3
Gayndah 08/05 11:20 19.9 24 4.12 -1.3 7 11 1020.5 0 9.9 18.3 21.9 56.7 41.2 138.4
Georgetown Airport 08/05 11:20 28.4 51 14.18 17.3 19 26 1015 0 30.5 30.3 53.5 141.3 148.4 515.2
Gladstone 08/05 11:20 20.9 20 3.64 -2.9 17 20 1019.5 0 8.9 17.4 20.2 52.0 35.9 119.6
Gladstone Airport 08/05 11:20 21.9 18 3.47 -3.5 11 13 1019.7 0 8.5 17.1 19.5 50.1 33.8 112.4
Gold Coast Seaway 08/05 11:20 20.4 37 6.54 5.2 9 11 1019.8 0 14.9 21.3 29.6 77.3 66.9 228.8
Goondiwindi 08/05 11:20 16.1 35 4.8 0.6 15 19 1023 0 11.5 20.0 25.3 65.5 50.7 171.4
Gympie 08/05 11:20 20.4 28 4.95 1.3 6 9 1019.8 0 11.6 19.2 24.4 63.2 49.6 167.8
Hamilton Island 08/05 11:20 22.1 66 12.88 15.5 50 56 1017.8 0 28.2 30.5 52.7 138.8 143.4 496.7
Hervey Bay 08/05 11:20 20 47 8.12 8.4 19 26 1019.3 0 18.3 23.7 35.3 92.5 85.6 294.3
Horn Island 08/05 11:20 29.4 69 20.26 23.3 30 33 1011.1 0 43.2 40.2 78.4 207.5 230.2 800.3
Hughenden 08/05 11:20 24.7 42 9.51 10.9 19 22 1018.4 0 21.0 24.4 38.2 100.2 96.7 333.7
Ingham Aerodrome 08/05 11:20 27.1 66 17.08 20.4 15 24 1016.7 0 36.7 35.7 66.7 176.3 191.0 663.3
Injune 08/05 09:00 10.3 44 4.21 -1.2 4 1024.8 0 10.4 20.5 25.1 64.8 47.6 159.6
Innisfail Aero 08/05 11:20 25 84 19.34 22.1 26 28 1016.1 0.6 41.7 40.8 79.0 209.0 230.5 800.6
Isisford 08/05 09:00 13.9 37 4.44 -0.4 24 1013.1 0 10.8 19.6 24.4 63.2 47.6 160.2
Julia Creek 08/05 11:20 25.2 38 8.85 9.9 35 41 1018.6 0 19.6 23.4 35.6 93.4 88.4 304.9
Kingaroy 08/05 11:20 17.7 20 3.02 -5.5 17 20 1020.6 0 7.7 17.3 19.1 49.0 31.0 102.0
Kowanyama 08/05 11:20 30.9 48 15.28 18.6 9 15 1012.7 0 32.6 31.1 56.0 148.0 157.5 547.0
Lady Elliot Island 08/05 11:20 20.3 61 10.73 12.5 26 33 1019.1 0 23.8 27.6 45.1 118.6 117.8 407.3
Lochington 08/05 11:20 18.3 28 4.38 -0.5 9 13 1021.7 0 10.5 18.9 23.2 60.1 44.8 150.8
Lockhart River 08/05 11:20 28.7 71 20.06 22.9 30 39 1012.4 0 42.8 40.2 78.3 207.2 229.6 797.9
Longreach 08/05 11:20 18.5 32 5.06 1.5 26 32 1022.5 0 11.9 19.8 25.4 65.9 52.0 176.3
Low Isles 08/05 11:20 26.2 82 20.19 22.9 37 39 1015 0 43.3 41.8 81.7 216.2 239.8 833.2
Lucinda 08/05 11:00 24.5 71 15.89 18.9 32 37 1016.8 0 34.4 34.7 63.7 168.2 180.3 625.7
Mackay 08/05 11:20 24 53 11.53 13.8 19 28 1018.7 0 25.2 27.7 46.1 121.3 122.4 423.8
Mackay Airport 08/05 11:20 24.3 45 9.96 11.6 19 20 1018.7 0 21.9 25.2 40.0 105.1 102.6 354.3
Mackay Racecourse 08/05 11:20 23.6 43 9.14 10.3 17 19 1013.1 0 20.3 24.0 37.2 97.5 93.2 321.5
Mareeba 08/05 11:20 25 63 14.5 17.5 20 32 1015 0 31.4 32.0 57.2 151.1 159.4 553.2
Maryborough 08/05 11:20 20.3 43 7.56 7.3 19 22 1020 0 17.1 22.8 33.2 86.9 78.7 270.2
Middle Percy Island 08/05 11:20 19.8 60 10.25 11.8 32 41 1018.6 0 22.8 27.0 43.5 114.2 112.3 387.9
Miles 08/05 11:20 15.5 28 3.7 -2.9 24 32 1023.3 0 9.2 18.7 21.8 56.3 39.1 130.2
Mitchell 08/05 09:00 11.3 51 5.2 1.5 4 1026.1 0 12.5 21.8 28.3 73.6 58.8 199.0
Moranbah Airport 08/05 11:20 21.6 35 6.64 5.5 20 24 1020 0 15.1 21.2 29.5 77.1 67.0 229.4
Mornington Island Airport 08/05 11:20 25.7 53 12.69 15.4 26 35 1014.6 0 27.6 28.8 49.4 130.2 134.1 464.7
Mount Isa 08/05 11:20 23 36 7.4 7.1 15 20 1019.6 0 16.6 21.9 31.6 82.6 74.3 255.0
Mount Stuart (Defence) 08/05 11:20 27 55 14.16 17.4 11 19 1013.1 0 30.6 30.7 54.3 143.4 150.6 522.8
Nambour 08/05 11:20 20.4 34 6.01 4 4 4 1020 0 13.8 20.6 27.8 72.5 61.0 208.1
New May Downs 08/05 11:20 21.9 36 6.95 6.1 22 26 1013.1 0 15.8 21.3 30.2 79.0 69.8 239.3
Normanton 08/05 11:20 28.3 49 13.55 16.6 15 20 1014.8 0 29.2 29.3 51.1 134.9 140.5 487.5
Oakey 08/05 11:20 16.2 31 4.27 -0.9 17 19 1021.1 0 10.3 19.2 23.4 60.6 44.8 150.4
Palmerville 08/05 11:20 30.2 55 16.86 20.2 13 17 1013.1 0 35.9 34.0 63.0 166.4 179.9 625.2
Point Lookout 08/05 09:00 17.7 52 7.85 7.9 4 1013.1 0 17.8 23.6 35.1 91.9 84.3 289.7
Portable Qfra Br 08/05 11:10 21 24 4.4 0 4 6 1013.1 0 10.5 18.2 22.3 57.7 43.2 145.7
Portable Qfrd Swr 08/05 11:10 15.6 30 3.99 -1.7 11 15 1013.1 0 9.8 18.7 22.4 58.0 41.7 139.8
Portable Qfri (Inglewood) 08/05 11:10 15.6 30 3.99 -1.7 15 20 1013.1 0 9.8 18.7 22.4 58.0 41.7 139.8
Portable Qfrj (North Tamborine) 08/05 11:10 13.7 32 3.79 -2.6 11 15 1013.1 0 9.4 18.8 22.3 57.6 40.5 135.3
Portable Qfrk (Ravenshoe) 08/05 11:10 18.9 89 14.42 17 17 22 1013.1 0 31.7 34.2 61.5 162.3 171.3 593.9
Portable Qfrl (Mt Fox) 08/05 11:10 22.5 71 14.18 17.1 7 13 1013.1 0 30.9 32.4 57.6 152.1 160.0 554.8
Portable Qfrm (Anduramba) 08/05 11:10 14 30 3.62 -3 17 19 1013.1 0 9.0 18.5 21.6 55.9 38.5 128.3
Proserpine Airport 08/05 11:20 23.7 49 10.48 12.4 19 24 1017.9 0 23.0 26.1 42.2 111.0 109.6 379.0
Redland (Alexandra Hills) 08/05 11:20 18.6 29 4.62 0.2 7 11 1013.1 0 11.0 18.9 23.6 61.3 46.8 158.1
Richmond 08/05 11:20 26.5 39 9.76 11.4 26 32 1018.4 0 21.4 24.3 38.2 100.4 97.4 336.6
Rockhampton 08/05 11:20 21.8 19 3.65 -2.8 22 26 1019.9 0 8.9 17.3 20.0 51.6 35.6 118.8
Rolleston Airport 08/05 11:20 16.7 24 3.41 -4 19 24 1022.3 0 8.5 18.0 20.6 53.0 35.4 117.6
Roma 08/05 11:20 16.1 29 3.97 -1.9 22 30 1023.9 0 9.7 18.9 22.6 58.2 41.7 139.5
Samuel Hill 08/05 11:20 21.3 35 6.52 5.2 15 19 1019.2 0 14.9 21.1 29.2 76.2 65.9 225.4
Scherger 08/05 11:20 31.4 60 19.62 22.7 13 17 1011.3 0 41.6 38.1 73.6 194.7 215.0 747.6
Seventeen Seventy 08/05 09:00 18.2 31 4.82 1.1 17 1018 0 11.4 19.4 24.5 63.7 49.4 167.1
South Johnstone 08/05 11:20 25.3 79 18.49 21.4 11 17 1016.2 0 39.8 39.1 74.7 197.5 216.5 752.0
Springsure 08/05 09:00 12.3 33 3.58 -3.4 6 1013.1 0 9.0 18.8 22.0 56.7 38.9 129.4
St George 08/05 11:20 15.9 38 5.15 1.6 28 32 1024.8 0 12.2 20.6 26.6 69.0 54.9 185.9
St Lawrence 08/05 11:20 22.6 22 4.42 -0.2 17 24 1019.7 0 10.5 18.1 22.1 57.2 42.9 144.5
Stanthorpe 08/05 09:00 8.4 66 5.6 2.5 1013.1 0 13.4 22.6 30.4 79.3 65.2 221.6
Sunshine Coast Airport 08/05 11:20 19.7 30 5.09 1.7 17 20 1019.8 0 11.9 19.5 25.0 65.0 51.5 174.5
Sweers Island 08/05 09:00 24.3 80 17.7 20.6 32 1014.6 0 38.3 38.0 71.9 190.0 207.1 719.3
Tambo 08/05 09:00 11.2 44 4.46 -0.5 6 1024 0 10.9 20.6 25.6 66.4 49.9 168.0
Taroom 08/05 09:00 13.9 33 3.96 -2 2 1024.5 0 9.8 19.4 23.2 59.8 42.7 143.0
Tewantin 08/05 11:20 20.5 38 6.76 5.7 11 13 1019.7 0 15.4 21.6 30.3 79.2 69.3 237.2
Texas 08/05 09:00 10 51 4.79 0.3 4 1013.1 0 11.6 21.0 26.8 69.7 54.1 182.6
Thargomindah 08/05 11:20 16.4 34 4.75 0.5 22 28 1027.5 0 11.3 20.0 25.2 65.2 50.2 169.5
The Monument 08/05 11:20 20 40 6.91 6 26 32 1021.6 0 15.7 22.0 31.1 81.2 71.5 245.0
Tin Can Bay (Defence) 08/05 11:20 20.1 40 6.95 6.1 11 17 1013.1 0 15.8 21.8 30.9 80.8 71.4 244.6
Toowoomba 08/05 11:20 13.7 31 3.67 -3.1 19 22 1021.3 0 9.1 18.9 22.1 57.1 39.5 131.7
Townsville 08/05 11:20 27.8 51 13.72 17 19 20 1016.9 0 29.6 29.9 52.2 137.7 143.8 499.0
Townsville - Fanning River (Defence) 08/05 11:20 27 48 12.35 15.3 15 20 1017.4 0 26.8 28.0 47.4 125.0 127.9 443.2
Townsville Air Weapons Range (Defence) 08/05 11:20 25.7 58 13.89 16.8 15 19 1013.1 0 30.1 30.7 54.1 142.8 149.6 518.9
Trepell 08/05 11:20 22 34 6.6 5.4 19 22 1021.1 0 15.0 21.1 29.3 76.4 66.3 226.9
Warwick 08/05 11:20 16.7 25 3.55 -3.4 9 11 1019.7 0 8.8 18.1 20.9 54.0 36.8 122.4
Weipa 08/05 11:20 31.1 55 17.7 21 24 30 1011.2 0 37.6 34.9 65.6 173.5 188.9 656.8
Wellcamp Airport 08/05 11:20 15.9 27 3.66 -2.9 11 15 1021.3 0 9.1 18.5 21.5 55.5 38.4 127.9
Williamson 08/05 11:20 22 27 5.24 2.2 17 20 1019.3 0 12.2 19.2 24.8 64.4 51.6 175.2
Willis Island 08/05 11:20 27.4 81 21.31 23.8 37 41 1014 0 45.6 43.3 85.7 226.9 253.3 880.2
Windorah 08/05 11:20 17.4 23 3.41 -3.9 26 32 1025.3 0 8.5 18.0 20.5 52.7 35.2 116.9
Winton 08/05 11:20 21.7 34 6.49 5.1 30 33 1021.4 0 14.8 21.0 29.1 75.7 65.4 223.5
Woolshed 08/05 11:20 23.6 67 14.25 17.1 7 11 1017.3 0 31.0 32.2 57.3 151.3 159.2 552.1
Yeppoon 08/05 11:20 22.3 25 4.94 1.3 17 20 1019.3 0 11.6 18.8 23.8 61.7 48.3 163.6

Last Refresh: 08-May-2026 11:02:58

Bureau of Meteorology